sensor_id;sensor_type;location;lat;lon;timestamp;P1;durP1;ratioP1;P2;durP2;ratioP2
68273;SDS011;55104;47.356;19.448;2022-09-21T00:01:52;0.10;;;0.10;;
68273;SDS011;55104;47.356;19.448;2022-09-21T00:04:54;0.00;;;0.00;;
68273;SDS011;55104;47.356;19.448;2022-09-21T00:08:00;0.10;;;0.10;;
68273;SDS011;55104;47.356;19.448;2022-09-21T00:11:04;0.00;;;0.00;;
68273;SDS011;55104;47.356;19.448;2022-09-21T00:14:08;0.10;;;0.10;;
68273;SDS011;55104;47.356;19.448;2022-09-21T00:17:12;0.20;;;0.20;;
68273;SDS011;55104;47.356;19.448;2022-09-21T00:20:14;0.00;;;0.00;;
68273;SDS011;55104;47.356;19.448;2022-09-21T00:23:17;0.00;;;0.00;;
68273;SDS011;55104;47.356;19.448;2022-09-21T00:26:21;0.10;;;0.10;;
68273;SDS011;55104;47.356;19.448;2022-09-21T00:29:24;0.10;;;0.10;;
68273;SDS011;55104;47.356;19.448;2022-09-21T00:32:26;0.30;;;0.20;;
68273;SDS011;55104;47.356;19.448;2022-09-21T00:35:28;0.10;;;0.10;;
68273;SDS011;55104;47.356;19.448;2022-09-21T00:38:30;0.10;;;0.10;;
68273;SDS011;55104;47.356;19.448;2022-09-21T00:41:32;0.10;;;0.10;;
68273;SDS011;55104;47.356;19.448;2022-09-21T00:44:35;0.13;;;0.10;;
68273;SDS011;55104;47.356;19.448;2022-09-21T00:47:40;0.10;;;0.10;;
68273;SDS011;55104;47.356;19.448;2022-09-21T00:50:45;0.20;;;0.10;;
68273;SDS011;55104;47.356;19.448;2022-09-21T00:53:56;0.20;;;0.10;;
68273;SDS011;55104;47.356;19.448;2022-09-21T00:57:03;0.10;;;0.10;;
68273;SDS011;55104;47.356;19.448;2022-09-21T01:00:06;0.10;;;0.10;;
68273;SDS011;55104;47.356;19.448;2022-09-21T01:03:10;0.10;;;0.10;;
68273;SDS011;55104;47.356;19.448;2022-09-21T01:06:14;0.17;;;0.10;;
68273;SDS011;55104;47.356;19.448;2022-09-21T01:09:18;0.65;;;0.35;;
68273;SDS011;55104;47.356;19.448;2022-09-21T01:15:57;0.10;;;0.10;;
68273;SDS011;55104;47.356;19.448;2022-09-21T01:26:22;0.15;;;0.10;;
68273;SDS011;55104;47.356;19.448;2022-09-21T01:29:38;0.20;;;0.10;;
68273;SDS011;55104;47.356;19.448;2022-09-21T01:32:47;0.20;;;0.10;;
68273;SDS011;55104;47.356;19.448;2022-09-21T01:36:14;0.10;;;0.10;;
68273;SDS011;55104;47.356;19.448;2022-09-21T01:39:21;0.00;;;0.00;;
68273;SDS011;55104;47.356;19.448;2022-09-21T01:42:25;0.10;;;0.10;;
68273;SDS011;55104;47.356;19.448;2022-09-21T01:45:36;0.10;;;0.00;;
68273;SDS011;55104;47.356;19.448;2022-09-21T01:48:43;0.10;;;0.10;;
68273;SDS011;55104;47.356;19.448;2022-09-21T01:51:49;0.10;;;0.10;;
68273;SDS011;55104;47.356;19.448;2022-09-21T01:55:00;0.10;;;0.10;;
68273;SDS011;55104;47.356;19.448;2022-09-21T01:58:21;0.95;;;0.43;;
68273;SDS011;55104;47.356;19.448;2022-09-21T02:01:30;0.00;;;0.00;;
68273;SDS011;55104;47.356;19.448;2022-09-21T02:04:37;0.10;;;0.10;;
68273;SDS011;55104;47.356;19.448;2022-09-21T02:07:40;0.10;;;0.10;;
68273;SDS011;55104;47.356;19.448;2022-09-21T02:10:52;0.10;;;0.10;;
68273;SDS011;55104;47.356;19.448;2022-09-21T02:13:55;0.20;;;0.10;;
68273;SDS011;55104;47.356;19.448;2022-09-21T02:17:02;0.10;;;0.10;;
68273;SDS011;55104;47.356;19.448;2022-09-21T02:20:18;0.20;;;0.10;;
68273;SDS011;55104;47.356;19.448;2022-09-21T02:26:34;0.00;;;0.00;;
68273;SDS011;55104;47.356;19.448;2022-09-21T02:36:13;0.10;;;0.10;;
68273;SDS011;55104;47.356;19.448;2022-09-21T02:39:34;0.00;;;0.00;;
68273;SDS011;55104;47.356;19.448;2022-09-21T02:42:44;0.10;;;0.10;;
68273;SDS011;55104;47.356;19.448;2022-09-21T02:45:54;0.10;;;0.10;;
68273;SDS011;55104;47.356;19.448;2022-09-21T02:49:04;0.10;;;0.10;;
68273;SDS011;55104;47.356;19.448;2022-09-21T02:52:11;0.10;;;0.10;;
68273;SDS011;55104;47.356;19.448;2022-09-21T02:55:15;0.10;;;0.10;;
68273;SDS011;55104;47.356;19.448;2022-09-21T02:58:18;0.10;;;0.10;;
68273;SDS011;55104;47.356;19.448;2022-09-21T03:01:23;0.10;;;0.10;;
68273;SDS011;55104;47.356;19.448;2022-09-21T03:04:26;0.10;;;0.10;;
68273;SDS011;55104;47.356;19.448;2022-09-21T03:07:29;0.10;;;0.10;;
68273;SDS011;55104;47.356;19.448;2022-09-21T03:10:32;0.10;;;0.10;;
68273;SDS011;55104;47.356;19.448;2022-09-21T03:13:34;0.10;;;0.10;;
68273;SDS011;55104;47.356;19.448;2022-09-21T03:16:37;0.10;;;0.10;;
68273;SDS011;55104;47.356;19.448;2022-09-21T03:19:39;0.00;;;0.00;;
68273;SDS011;55104;47.356;19.448;2022-09-21T03:22:41;0.00;;;0.00;;
68273;SDS011;55104;47.356;19.448;2022-09-21T03:25:43;0.10;;;0.10;;
68273;SDS011;55104;47.356;19.448;2022-09-21T03:28:49;0.10;;;0.10;;
68273;SDS011;55104;47.356;19.448;2022-09-21T03:31:55;0.10;;;0.10;;
68273;SDS011;55104;47.356;19.448;2022-09-21T03:34:57;0.10;;;0.10;;
68273;SDS011;55104;47.356;19.448;2022-09-21T03:37:59;0.10;;;0.10;;
68273;SDS011;55104;47.356;19.448;2022-09-21T03:41:02;0.10;;;0.10;;
68273;SDS011;55104;47.356;19.448;2022-09-21T03:44:04;0.10;;;0.10;;
68273;SDS011;55104;47.356;19.448;2022-09-21T03:47:06;0.20;;;0.10;;
68273;SDS011;55104;47.356;19.448;2022-09-21T03:50:08;0.10;;;0.10;;
68273;SDS011;55104;47.356;19.448;2022-09-21T03:53:11;0.10;;;0.10;;
68273;SDS011;55104;47.356;19.448;2022-09-21T03:56:14;0.00;;;0.00;;
68273;SDS011;55104;47.356;19.448;2022-09-21T03:59:16;0.05;;;0.05;;
68273;SDS011;55104;47.356;19.448;2022-09-21T04:02:18;0.10;;;0.10;;
68273;SDS011;55104;47.356;19.448;2022-09-21T04:05:21;0.10;;;0.10;;
68273;SDS011;55104;47.356;19.448;2022-09-21T04:08:23;0.10;;;0.10;;
68273;SDS011;55104;47.356;19.448;2022-09-21T04:11:25;0.10;;;0.10;;
68273;SDS011;55104;47.356;19.448;2022-09-21T04:14:28;0.13;;;0.10;;
68273;SDS011;55104;47.356;19.448;2022-09-21T04:17:30;0.10;;;0.10;;
68273;SDS011;55104;47.356;19.448;2022-09-21T04:20:32;0.10;;;0.10;;
68273;SDS011;55104;47.356;19.448;2022-09-21T04:23:34;0.10;;;0.10;;
68273;SDS011;55104;47.356;19.448;2022-09-21T04:26:36;0.00;;;0.00;;
68273;SDS011;55104;47.356;19.448;2022-09-21T04:29:38;0.13;;;0.10;;
68273;SDS011;55104;47.356;19.448;2022-09-21T04:32:40;0.20;;;0.10;;
68273;SDS011;55104;47.356;19.448;2022-09-21T04:35:43;0.20;;;0.10;;
68273;SDS011;55104;47.356;19.448;2022-09-21T04:38:45;0.10;;;0.10;;
68273;SDS011;55104;47.356;19.448;2022-09-21T04:41:47;0.10;;;0.10;;
68273;SDS011;55104;47.356;19.448;2022-09-21T04:44:49;0.10;;;0.10;;
68273;SDS011;55104;47.356;19.448;2022-09-21T04:47:52;0.10;;;0.10;;
68273;SDS011;55104;47.356;19.448;2022-09-21T04:50:53;0.10;;;0.10;;
68273;SDS011;55104;47.356;19.448;2022-09-21T04:53:55;0.10;;;0.10;;
68273;SDS011;55104;47.356;19.448;2022-09-21T04:56:57;0.05;;;0.05;;
68273;SDS011;55104;47.356;19.448;2022-09-21T05:00:00;0.10;;;0.10;;
68273;SDS011;55104;47.356;19.448;2022-09-21T05:03:02;0.00;;;0.00;;
68273;SDS011;55104;47.356;19.448;2022-09-21T05:06:04;0.10;;;0.10;;
68273;SDS011;55104;47.356;19.448;2022-09-21T05:09:07;0.10;;;0.10;;
68273;SDS011;55104;47.356;19.448;2022-09-21T05:12:31;0.10;;;0.10;;
68273;SDS011;55104;47.356;19.448;2022-09-21T05:15:37;0.00;;;0.00;;
68273;SDS011;55104;47.356;19.448;2022-09-21T05:18:40;0.10;;;0.10;;
68273;SDS011;55104;47.356;19.448;2022-09-21T05:21:42;0.20;;;0.10;;
68273;SDS011;55104;47.356;19.448;2022-09-21T05:24:44;0.30;;;0.10;;
68273;SDS011;55104;47.356;19.448;2022-09-21T05:27:46;0.20;;;0.10;;
68273;SDS011;55104;47.356;19.448;2022-09-21T05:38:04;0.10;;;0.10;;
68273;SDS011;55104;47.356;19.448;2022-09-21T05:41:13;0.20;;;0.10;;
68273;SDS011;55104;47.356;19.448;2022-09-21T05:44:15;0.10;;;0.10;;
68273;SDS011;55104;47.356;19.448;2022-09-21T05:47:22;0.10;;;0.10;;
68273;SDS011;55104;47.356;19.448;2022-09-21T05:51:12;0.28;;;0.20;;
68273;SDS011;55104;47.356;19.448;2022-09-21T05:57:18;0.60;;;0.40;;
68273;SDS011;55104;47.356;19.448;2022-09-21T06:03:58;0.20;;;0.10;;
68273;SDS011;55104;47.356;19.448;2022-09-21T06:07:01;0.00;;;0.00;;
68273;SDS011;55104;47.356;19.448;2022-09-21T06:10:04;0.20;;;0.10;;
68273;SDS011;55104;47.356;19.448;2022-09-21T06:13:06;0.10;;;0.10;;
68273;SDS011;55104;47.356;19.448;2022-09-21T06:16:08;0.10;;;0.10;;
68273;SDS011;55104;47.356;19.448;2022-09-21T06:19:11;0.28;;;0.20;;
68273;SDS011;55104;47.356;19.448;2022-09-21T06:22:13;0.13;;;0.10;;
68273;SDS011;55104;47.356;19.448;2022-09-21T06:25:15;0.10;;;0.10;;
68273;SDS011;55104;47.356;19.448;2022-09-21T06:28:19;0.10;;;0.10;;
68273;SDS011;55104;47.356;19.448;2022-09-21T06:31:21;0.10;;;0.10;;
68273;SDS011;55104;47.356;19.448;2022-09-21T06:34:23;0.20;;;0.10;;
68273;SDS011;55104;47.356;19.448;2022-09-21T06:37:25;0.20;;;0.10;;
68273;SDS011;55104;47.356;19.448;2022-09-21T06:40:27;0.20;;;0.10;;
68273;SDS011;55104;47.356;19.448;2022-09-21T06:43:30;0.10;;;0.10;;
68273;SDS011;55104;47.356;19.448;2022-09-21T06:46:33;0.80;;;0.57;;
68273;SDS011;55104;47.356;19.448;2022-09-21T06:49:35;0.13;;;0.10;;
68273;SDS011;55104;47.356;19.448;2022-09-21T06:52:43;0.30;;;0.13;;
68273;SDS011;55104;47.356;19.448;2022-09-21T06:55:45;0.30;;;0.20;;
68273;SDS011;55104;47.356;19.448;2022-09-21T06:58:46;0.20;;;0.10;;
68273;SDS011;55104;47.356;19.448;2022-09-21T07:01:48;0.10;;;0.10;;
68273;SDS011;55104;47.356;19.448;2022-09-21T07:04:51;0.25;;;0.10;;
68273;SDS011;55104;47.356;19.448;2022-09-21T07:07:56;0.10;;;0.10;;
68273;SDS011;55104;47.356;19.448;2022-09-21T07:10:59;0.10;;;0.10;;
68273;SDS011;55104;47.356;19.448;2022-09-21T07:14:03;0.30;;;0.17;;
68273;SDS011;55104;47.356;19.448;2022-09-21T07:17:06;0.10;;;0.10;;
68273;SDS011;55104;47.356;19.448;2022-09-21T07:20:09;0.30;;;0.10;;
68273;SDS011;55104;47.356;19.448;2022-09-21T07:23:12;0.10;;;0.10;;
68273;SDS011;55104;47.356;19.448;2022-09-21T07:26:15;0.13;;;0.10;;
68273;SDS011;55104;47.356;19.448;2022-09-21T07:29:17;0.17;;;0.15;;
68273;SDS011;55104;47.356;19.448;2022-09-21T07:32:20;0.10;;;0.10;;
68273;SDS011;55104;47.356;19.448;2022-09-21T07:35:22;0.75;;;0.63;;
68273;SDS011;55104;47.356;19.448;2022-09-21T07:38:24;0.25;;;0.10;;
68273;SDS011;55104;47.356;19.448;2022-09-21T07:41:26;0.20;;;0.10;;
68273;SDS011;55104;47.356;19.448;2022-09-21T07:44:28;0.10;;;0.10;;
68273;SDS011;55104;47.356;19.448;2022-09-21T07:47:30;0.20;;;0.10;;
68273;SDS011;55104;47.356;19.448;2022-09-21T07:50:32;0.10;;;0.10;;
68273;SDS011;55104;47.356;19.448;2022-09-21T07:53:35;0.20;;;0.10;;
68273;SDS011;55104;47.356;19.448;2022-09-21T07:56:38;0.10;;;0.10;;
68273;SDS011;55104;47.356;19.448;2022-09-21T07:59:40;0.30;;;0.20;;
68273;SDS011;55104;47.356;19.448;2022-09-21T08:02:42;0.20;;;0.10;;
68273;SDS011;55104;47.356;19.448;2022-09-21T08:05:48;0.32;;;0.20;;
68273;SDS011;55104;47.356;19.448;2022-09-21T08:08:50;0.10;;;0.10;;
68273;SDS011;55104;47.356;19.448;2022-09-21T08:11:58;0.10;;;0.10;;
68273;SDS011;55104;47.356;19.448;2022-09-21T08:15:02;0.20;;;0.10;;
68273;SDS011;55104;47.356;19.448;2022-09-21T08:18:04;0.40;;;0.20;;
68273;SDS011;55104;47.356;19.448;2022-09-21T08:21:08;0.30;;;0.10;;
68273;SDS011;55104;47.356;19.448;2022-09-21T08:24:12;0.30;;;0.10;;
68273;SDS011;55104;47.356;19.448;2022-09-21T08:27:14;0.20;;;0.10;;
68273;SDS011;55104;47.356;19.448;2022-09-21T08:30:16;0.15;;;0.10;;
68273;SDS011;55104;47.356;19.448;2022-09-21T08:33:18;0.20;;;0.10;;
68273;SDS011;55104;47.356;19.448;2022-09-21T08:36:20;0.20;;;0.10;;
68273;SDS011;55104;47.356;19.448;2022-09-21T08:39:22;0.22;;;0.10;;
68273;SDS011;55104;47.356;19.448;2022-09-21T08:42:38;0.30;;;0.15;;
68273;SDS011;55104;47.356;19.448;2022-09-21T08:45:51;0.20;;;0.10;;
68273;SDS011;55104;47.356;19.448;2022-09-21T08:48:55;0.20;;;0.10;;
68273;SDS011;55104;47.356;19.448;2022-09-21T08:52:02;0.15;;;0.10;;
68273;SDS011;55104;47.356;19.448;2022-09-21T08:55:11;0.20;;;0.15;;
68273;SDS011;55104;47.356;19.448;2022-09-21T09:01:30;0.32;;;0.20;;
68273;SDS011;55104;47.356;19.448;2022-09-21T09:18:35;0.40;;;0.20;;
68273;SDS011;55104;47.356;19.448;2022-09-21T09:21:44;0.20;;;0.13;;
68273;SDS011;55104;47.356;19.448;2022-09-21T09:24:50;0.30;;;0.10;;
68273;SDS011;55104;47.356;19.448;2022-09-21T09:27:56;0.40;;;0.20;;
68273;SDS011;55104;47.356;19.448;2022-09-21T09:31:44;0.20;;;0.10;;
68273;SDS011;55104;47.356;19.448;2022-09-21T09:34:35;0.40;;;0.20;;
68273;SDS011;55104;47.356;19.448;2022-09-21T09:37:42;0.30;;;0.10;;
68273;SDS011;55104;47.356;19.448;2022-09-21T09:40:54;0.40;;;0.20;;
68273;SDS011;55104;47.356;19.448;2022-09-21T09:47:56;0.38;;;0.20;;
68273;SDS011;55104;47.356;19.448;2022-09-21T09:51:24;0.50;;;0.30;;
68273;SDS011;55104;47.356;19.448;2022-09-21T09:54:27;0.27;;;0.10;;
68273;SDS011;55104;47.356;19.448;2022-09-21T09:57:34;0.30;;;0.10;;
68273;SDS011;55104;47.356;19.448;2022-09-21T10:00:36;0.20;;;0.10;;
68273;SDS011;55104;47.356;19.448;2022-09-21T10:03:40;0.20;;;0.10;;
68273;SDS011;55104;47.356;19.448;2022-09-21T10:06:42;0.60;;;0.20;;
68273;SDS011;55104;47.356;19.448;2022-09-21T10:09:48;0.30;;;0.17;;
68273;SDS011;55104;47.356;19.448;2022-09-21T10:12:50;0.30;;;0.10;;
68273;SDS011;55104;47.356;19.448;2022-09-21T10:16:05;0.30;;;0.10;;
68273;SDS011;55104;47.356;19.448;2022-09-21T10:19:14;0.60;;;0.30;;
68273;SDS011;55104;47.356;19.448;2022-09-21T10:22:24;0.40;;;0.20;;
68273;SDS011;55104;47.356;19.448;2022-09-21T10:25:26;0.40;;;0.20;;
68273;SDS011;55104;47.356;19.448;2022-09-21T10:28:28;0.30;;;0.10;;
68273;SDS011;55104;47.356;19.448;2022-09-21T10:31:31;0.32;;;0.20;;
68273;SDS011;55104;47.356;19.448;2022-09-21T10:34:33;0.20;;;0.10;;
68273;SDS011;55104;47.356;19.448;2022-09-21T10:37:36;0.60;;;0.30;;
68273;SDS011;55104;47.356;19.448;2022-09-21T10:40:43;0.30;;;0.20;;
68273;SDS011;55104;47.356;19.448;2022-09-21T10:43:46;0.30;;;0.10;;
68273;SDS011;55104;47.356;19.448;2022-09-21T10:46:51;0.45;;;0.20;;
68273;SDS011;55104;47.356;19.448;2022-09-21T10:49:54;0.30;;;0.20;;
68273;SDS011;55104;47.356;19.448;2022-09-21T10:53:00;0.28;;;0.10;;
68273;SDS011;55104;47.356;19.448;2022-09-21T11:02:24;0.32;;;0.20;;
68273;SDS011;55104;47.356;19.448;2022-09-21T11:05:37;1.33;;;0.40;;
68273;SDS011;55104;47.356;19.448;2022-09-21T11:12:02;0.43;;;0.20;;
68273;SDS011;55104;47.356;19.448;2022-09-21T11:18:29;0.40;;;0.20;;
68273;SDS011;55104;47.356;19.448;2022-09-21T11:28:27;0.33;;;0.20;;
68273;SDS011;55104;47.356;19.448;2022-09-21T11:34:50;0.20;;;0.10;;
68273;SDS011;55104;47.356;19.448;2022-09-21T11:47:43;0.30;;;0.20;;
68273;SDS011;55104;47.356;19.448;2022-09-21T12:00:40;0.30;;;0.10;;
68273;SDS011;55104;47.356;19.448;2022-09-21T12:03:57;0.30;;;0.10;;
68273;SDS011;55104;47.356;19.448;2022-09-21T12:07:16;0.20;;;0.10;;
68273;SDS011;55104;47.356;19.448;2022-09-21T12:10:45;0.30;;;0.10;;
68273;SDS011;55104;47.356;19.448;2022-09-21T12:20:05;0.10;;;0.10;;
68273;SDS011;55104;47.356;19.448;2022-09-21T12:23:21;0.50;;;0.20;;
68273;SDS011;55104;47.356;19.448;2022-09-21T12:26:32;0.93;;;0.28;;
68273;SDS011;55104;47.356;19.448;2022-09-21T12:29:44;0.28;;;0.10;;
68273;SDS011;55104;47.356;19.448;2022-09-21T12:32:54;0.20;;;0.10;;
68273;SDS011;55104;47.356;19.448;2022-09-21T12:36:11;0.30;;;0.17;;
68273;SDS011;55104;47.356;19.448;2022-09-21T12:46:20;0.30;;;0.20;;
68273;SDS011;55104;47.356;19.448;2022-09-21T12:49:27;0.20;;;0.10;;
68273;SDS011;55104;47.356;19.448;2022-09-21T12:52:32;0.30;;;0.20;;
68273;SDS011;55104;47.356;19.448;2022-09-21T12:55:45;0.28;;;0.17;;
68273;SDS011;55104;47.356;19.448;2022-09-21T13:02:32;0.30;;;0.20;;
68273;SDS011;55104;47.356;19.448;2022-09-21T13:05:50;0.30;;;0.20;;
68273;SDS011;55104;47.356;19.448;2022-09-21T13:09:13;0.40;;;0.20;;
68273;SDS011;55104;47.356;19.448;2022-09-21T13:12:19;0.30;;;0.20;;
68273;SDS011;55104;47.356;19.448;2022-09-21T13:15:26;0.25;;;0.10;;
68273;SDS011;55104;47.356;19.448;2022-09-21T13:21:37;0.50;;;0.20;;
68273;SDS011;55104;47.356;19.448;2022-09-21T13:24:40;0.30;;;0.20;;
68273;SDS011;55104;47.356;19.448;2022-09-21T13:34:37;0.50;;;0.30;;
68273;SDS011;55104;47.356;19.448;2022-09-21T13:37:41;0.30;;;0.20;;
68273;SDS011;55104;47.356;19.448;2022-09-21T13:40:48;0.10;;;0.10;;
68273;SDS011;55104;47.356;19.448;2022-09-21T13:47:04;0.45;;;0.30;;
68273;SDS011;55104;47.356;19.448;2022-09-21T13:50:21;0.20;;;0.15;;
68273;SDS011;55104;47.356;19.448;2022-09-21T13:53:28;0.23;;;0.17;;
68273;SDS011;55104;47.356;19.448;2022-09-21T13:56:36;0.30;;;0.13;;
68273;SDS011;55104;47.356;19.448;2022-09-21T13:59:38;0.28;;;0.17;;
68273;SDS011;55104;47.356;19.448;2022-09-21T14:05:59;0.40;;;0.25;;
68273;SDS011;55104;47.356;19.448;2022-09-21T14:09:07;0.13;;;0.10;;
68273;SDS011;55104;47.356;19.448;2022-09-21T14:12:23;0.10;;;0.10;;
68273;SDS011;55104;47.356;19.448;2022-09-21T14:15:35;0.30;;;0.10;;
68273;SDS011;55104;47.356;19.448;2022-09-21T14:18:39;0.28;;;0.20;;
68273;SDS011;55104;47.356;19.448;2022-09-21T14:22:30;0.20;;;0.10;;
68273;SDS011;55104;47.356;19.448;2022-09-21T14:25:22;0.30;;;0.20;;
68273;SDS011;55104;47.356;19.448;2022-09-21T14:31:33;0.10;;;0.10;;
68273;SDS011;55104;47.356;19.448;2022-09-21T14:34:39;0.20;;;0.10;;
68273;SDS011;55104;47.356;19.448;2022-09-21T14:37:49;0.30;;;0.20;;
68273;SDS011;55104;47.356;19.448;2022-09-21T14:40:58;0.20;;;0.17;;
68273;SDS011;55104;47.356;19.448;2022-09-21T14:44:03;0.55;;;0.30;;
68273;SDS011;55104;47.356;19.448;2022-09-21T14:50:46;0.22;;;0.10;;
68273;SDS011;55104;47.356;19.448;2022-09-21T14:57:26;0.20;;;0.10;;
68273;SDS011;55104;47.356;19.448;2022-09-21T15:00:50;0.20;;;0.10;;
68273;SDS011;55104;47.356;19.448;2022-09-21T15:07:39;0.55;;;0.55;;
68273;SDS011;55104;47.356;19.448;2022-09-21T15:14:46;0.20;;;0.10;;
68273;SDS011;55104;47.356;19.448;2022-09-21T15:17:57;0.30;;;0.13;;
68273;SDS011;55104;47.356;19.448;2022-09-21T15:21:02;0.10;;;0.10;;
68273;SDS011;55104;47.356;19.448;2022-09-21T15:24:22;0.38;;;0.20;;
68273;SDS011;55104;47.356;19.448;2022-09-21T15:27:27;0.10;;;0.10;;
68273;SDS011;55104;47.356;19.448;2022-09-21T15:30:39;0.20;;;0.10;;
68273;SDS011;55104;47.356;19.448;2022-09-21T15:33:46;0.30;;;0.20;;
68273;SDS011;55104;47.356;19.448;2022-09-21T15:36:50;0.50;;;0.38;;
68273;SDS011;55104;47.356;19.448;2022-09-21T15:40:00;0.13;;;0.10;;
68273;SDS011;55104;47.356;19.448;2022-09-21T15:46:11;0.20;;;0.10;;
68273;SDS011;55104;47.356;19.448;2022-09-21T15:49:15;0.20;;;0.10;;
68273;SDS011;55104;47.356;19.448;2022-09-21T15:52:31;0.30;;;0.17;;
68273;SDS011;55104;47.356;19.448;2022-09-21T15:55:38;0.73;;;0.52;;
68273;SDS011;55104;47.356;19.448;2022-09-21T15:58:42;0.20;;;0.10;;
68273;SDS011;55104;47.356;19.448;2022-09-21T16:01:48;0.40;;;0.20;;
68273;SDS011;55104;47.356;19.448;2022-09-21T16:04:53;0.43;;;0.20;;
68273;SDS011;55104;47.356;19.448;2022-09-21T16:08:05;0.10;;;0.10;;
68273;SDS011;55104;47.356;19.448;2022-09-21T16:14:26;0.50;;;0.25;;
68273;SDS011;55104;47.356;19.448;2022-09-21T16:21:10;0.20;;;0.10;;
68273;SDS011;55104;47.356;19.448;2022-09-21T16:24:34;0.40;;;0.20;;
68273;SDS011;55104;47.356;19.448;2022-09-21T16:27:38;0.20;;;0.10;;
68273;SDS011;55104;47.356;19.448;2022-09-21T16:30:52;0.22;;;0.10;;
68273;SDS011;55104;47.356;19.448;2022-09-21T16:33:57;0.60;;;0.40;;
68273;SDS011;55104;47.356;19.448;2022-09-21T16:37:19;0.10;;;0.10;;
68273;SDS011;55104;47.356;19.448;2022-09-21T16:40:27;0.22;;;0.20;;
68273;SDS011;55104;47.356;19.448;2022-09-21T16:43:30;0.20;;;0.10;;
68273;SDS011;55104;47.356;19.448;2022-09-21T16:46:32;0.20;;;0.10;;
68273;SDS011;55104;47.356;19.448;2022-09-21T16:49:34;0.20;;;0.10;;
68273;SDS011;55104;47.356;19.448;2022-09-21T16:52:36;0.40;;;0.20;;
68273;SDS011;55104;47.356;19.448;2022-09-21T16:55:40;0.20;;;0.10;;
68273;SDS011;55104;47.356;19.448;2022-09-21T16:58:44;0.25;;;0.13;;
68273;SDS011;55104;47.356;19.448;2022-09-21T17:01:46;0.20;;;0.10;;
68273;SDS011;55104;47.356;19.448;2022-09-21T17:04:57;0.20;;;0.10;;
68273;SDS011;55104;47.356;19.448;2022-09-21T17:07:59;0.20;;;0.10;;
68273;SDS011;55104;47.356;19.448;2022-09-21T17:11:01;0.50;;;0.25;;
68273;SDS011;55104;47.356;19.448;2022-09-21T17:14:05;0.52;;;0.22;;
68273;SDS011;55104;47.356;19.448;2022-09-21T17:17:11;0.30;;;0.17;;
68273;SDS011;55104;47.356;19.448;2022-09-21T17:20:19;0.30;;;0.20;;
68273;SDS011;55104;47.356;19.448;2022-09-21T17:23:44;0.30;;;0.20;;
68273;SDS011;55104;47.356;19.448;2022-09-21T17:26:46;1.65;;;0.65;;
68273;SDS011;55104;47.356;19.448;2022-09-21T17:29:48;0.10;;;0.10;;
68273;SDS011;55104;47.356;19.448;2022-09-21T17:32:51;0.10;;;0.10;;
68273;SDS011;55104;47.356;19.448;2022-09-21T17:35:53;2.73;;;2.53;;
68273;SDS011;55104;47.356;19.448;2022-09-21T17:38:57;0.13;;;0.10;;
68273;SDS011;55104;47.356;19.448;2022-09-21T17:42:10;0.20;;;0.13;;
68273;SDS011;55104;47.356;19.448;2022-09-21T17:45:35;0.10;;;0.10;;
68273;SDS011;55104;47.356;19.448;2022-09-21T17:48:41;0.30;;;0.13;;
68273;SDS011;55104;47.356;19.448;2022-09-21T17:51:43;0.10;;;0.10;;
68273;SDS011;55104;47.356;19.448;2022-09-21T17:55:04;0.30;;;0.20;;
68273;SDS011;55104;47.356;19.448;2022-09-21T18:01:35;0.43;;;0.43;;
68273;SDS011;55104;47.356;19.448;2022-09-21T18:04:45;0.10;;;0.10;;
68273;SDS011;55104;47.356;19.448;2022-09-21T18:07:49;0.20;;;0.10;;
68273;SDS011;55104;47.356;19.448;2022-09-21T18:14:20;1.50;;;1.05;;
68273;SDS011;55104;47.356;19.448;2022-09-21T18:21:17;3.10;;;1.65;;
68273;SDS011;55104;47.356;19.448;2022-09-21T18:24:26;4.43;;;1.50;;
68273;SDS011;55104;47.356;19.448;2022-09-21T18:27:33;1.05;;;0.45;;
68273;SDS011;55104;47.356;19.448;2022-09-21T18:30:36;3.90;;;1.60;;
68273;SDS011;55104;47.356;19.448;2022-09-21T18:33:48;4.45;;;2.15;;
68273;SDS011;55104;47.356;19.448;2022-09-21T18:40:11;1.63;;;0.83;;
68273;SDS011;55104;47.356;19.448;2022-09-21T18:43:34;2.00;;;1.38;;
68273;SDS011;55104;47.356;19.448;2022-09-21T18:46:49;13.32;;;3.08;;
68273;SDS011;55104;47.356;19.448;2022-09-21T18:53:28;7.32;;;4.13;;
68273;SDS011;55104;47.356;19.448;2022-09-21T18:56:47;2.97;;;2.00;;
68273;SDS011;55104;47.356;19.448;2022-09-21T18:59:50;9.10;;;3.90;;
68273;SDS011;55104;47.356;19.448;2022-09-21T19:02:52;2.72;;;1.52;;
68273;SDS011;55104;47.356;19.448;2022-09-21T19:16:18;2.22;;;1.33;;
68273;SDS011;55104;47.356;19.448;2022-09-21T19:19:35;1.63;;;0.80;;
68273;SDS011;55104;47.356;19.448;2022-09-21T19:22:53;0.50;;;0.20;;
68273;SDS011;55104;47.356;19.448;2022-09-21T19:26:02;0.70;;;0.45;;
68273;SDS011;55104;47.356;19.448;2022-09-21T19:29:20;0.95;;;0.43;;
68273;SDS011;55104;47.356;19.448;2022-09-21T19:35:40;0.70;;;0.40;;
68273;SDS011;55104;47.356;19.448;2022-09-21T19:38:43;1.48;;;0.60;;
68273;SDS011;55104;47.356;19.448;2022-09-21T19:41:58;0.98;;;0.55;;
68273;SDS011;55104;47.356;19.448;2022-09-21T19:45:15;0.20;;;0.20;;
68273;SDS011;55104;47.356;19.448;2022-09-21T19:48:25;0.28;;;0.20;;
68273;SDS011;55104;47.356;19.448;2022-09-21T19:51:36;0.53;;;0.20;;
68273;SDS011;55104;47.356;19.448;2022-09-21T19:54:49;1.13;;;0.77;;
68273;SDS011;55104;47.356;19.448;2022-09-21T19:58:09;1.35;;;0.70;;
68273;SDS011;55104;47.356;19.448;2022-09-21T20:01:33;0.70;;;0.38;;
68273;SDS011;55104;47.356;19.448;2022-09-21T20:04:44;0.30;;;0.17;;
68273;SDS011;55104;47.356;19.448;2022-09-21T20:08:10;1.37;;;1.10;;
68273;SDS011;55104;47.356;19.448;2022-09-21T20:11:21;1.55;;;0.40;;
68273;SDS011;55104;47.356;19.448;2022-09-21T20:14:31;0.95;;;0.43;;
68273;SDS011;55104;47.356;19.448;2022-09-21T20:17:57;0.82;;;0.40;;
68273;SDS011;55104;47.356;19.448;2022-09-21T20:21:09;0.50;;;0.30;;
68273;SDS011;55104;47.356;19.448;2022-09-21T20:30:31;0.50;;;0.30;;
68273;SDS011;55104;47.356;19.448;2022-09-21T20:33:35;2.15;;;0.80;;
68273;SDS011;55104;47.356;19.448;2022-09-21T20:36:37;0.50;;;0.23;;
68273;SDS011;55104;47.356;19.448;2022-09-21T20:39:39;0.55;;;0.30;;
68273;SDS011;55104;47.356;19.448;2022-09-21T20:42:42;0.75;;;0.35;;
68273;SDS011;55104;47.356;19.448;2022-09-21T20:45:45;1.25;;;0.57;;
68273;SDS011;55104;47.356;19.448;2022-09-21T20:48:49;1.10;;;0.27;;
68273;SDS011;55104;47.356;19.448;2022-09-21T20:51:59;0.75;;;0.30;;
68273;SDS011;55104;47.356;19.448;2022-09-21T20:55:02;0.60;;;0.32;;
68273;SDS011;55104;47.356;19.448;2022-09-21T20:58:05;1.13;;;0.65;;
68273;SDS011;55104;47.356;19.448;2022-09-21T21:01:08;0.75;;;0.55;;
68273;SDS011;55104;47.356;19.448;2022-09-21T21:04:11;1.85;;;0.93;;
68273;SDS011;55104;47.356;19.448;2022-09-21T21:07:14;0.43;;;0.20;;
68273;SDS011;55104;47.356;19.448;2022-09-21T21:10:16;1.88;;;0.40;;
68273;SDS011;55104;47.356;19.448;2022-09-21T21:13:19;0.93;;;0.50;;
68273;SDS011;55104;47.356;19.448;2022-09-21T21:16:21;1.33;;;1.20;;
68273;SDS011;55104;47.356;19.448;2022-09-21T21:19:23;0.10;;;0.10;;
68273;SDS011;55104;47.356;19.448;2022-09-21T21:22:26;0.73;;;0.30;;
68273;SDS011;55104;47.356;19.448;2022-09-21T21:25:28;0.10;;;0.10;;
68273;SDS011;55104;47.356;19.448;2022-09-21T21:28:31;0.73;;;0.40;;
68273;SDS011;55104;47.356;19.448;2022-09-21T21:31:33;1.00;;;0.55;;
68273;SDS011;55104;47.356;19.448;2022-09-21T21:34:35;0.30;;;0.20;;
68273;SDS011;55104;47.356;19.448;2022-09-21T21:37:37;0.40;;;0.22;;
68273;SDS011;55104;47.356;19.448;2022-09-21T21:40:40;0.10;;;0.10;;
68273;SDS011;55104;47.356;19.448;2022-09-21T21:43:42;0.13;;;0.13;;